Time;durP1;ratioP1;P1;durP2;ratioP2;P2;SDS_P1;SDS_P2;PMS_P1;PMS_P2;Temp;Humidity;BMP_temperature;BMP_pressure;BME280_temperature;BME280_humidity;BME280_pressure;Samples;Min_cycle;Max_cycle;Signal;HPM_P1;HPM_P2
2023/01/20 00:01:59;;;;;;;16.27;8.38;;;;;;;-145.69;100.00;52721.66;5073940;28;20525;-77
2023/01/20 00:04:27;;;;;;;13.73;6.27;;;;;;;-145.69;100.00;52699.88;5074946;28;20245;-77
2023/01/20 00:06:53;;;;;;;12.03;5.73;;;;;;;-145.69;100.00;52691.94;5075038;28;20231;-77
2023/01/20 00:09:21;;;;;;;11.03;5.07;;;;;;;-145.69;100.00;52697.88;5074879;28;20203;-77
2023/01/20 00:11:47;;;;;;;10.90;5.73;;;;;;;-145.69;100.00;52676.09;5075087;28;20256;-77
2023/01/20 00:14:14;;;;;;;11.27;5.47;;;;;;;-145.69;100.00;52721.66;5074888;28;20199;-77
2023/01/20 00:16:40;;;;;;;14.60;6.00;;;;;;;-145.69;100.00;52691.94;5074392;28;20293;-77
2023/01/20 00:19:07;;;;;;;12.07;5.30;;;;;;;-145.69;100.00;52697.88;5073980;28;20195;-78
2023/01/20 00:21:35;;;;;;;11.97;6.03;;;;;;;-145.69;100.00;52711.75;5074625;28;20670;-77
2023/01/20 00:24:01;;;;;;;16.10;6.47;;;;;;;-145.69;100.00;52693.94;5073428;28;20202;-77
2023/01/20 00:26:28;;;;;;;16.73;5.33;;;;;;;-145.69;100.00;52687.97;5074189;28;20582;-77
2023/01/20 00:28:56;;;;;;;13.47;4.73;;;;;;;-145.69;100.00;52721.66;5074972;28;20210;-77
2023/01/20 00:31:24;;;;;;;13.13;4.80;;;;;;;-145.69;100.00;52709.78;5074537;28;20203;-77
2023/01/20 00:33:52;;;;;;;15.70;5.23;;;;;;;-145.69;100.00;52654.31;5074458;28;20203;-78
2023/01/20 00:36:21;;;;;;;11.63;4.83;;;;;;;-145.69;100.00;52723.63;5073907;28;20210;-77
2023/01/20 00:38:49;;;;;;;14.73;5.40;;;;;;;-145.69;100.00;52711.75;5074242;28;20206;-76
2023/01/20 00:41:16;;;;;;;10.83;4.93;;;;;;;-145.69;100.00;52697.88;5074026;28;20566;-77
2023/01/20 00:43:44;;;;;;;10.23;4.57;;;;;;;-145.69;100.00;52735.50;5073719;28;20720;-77
2023/01/20 00:46:10;;;;;;;10.60;4.87;;;;;;;-145.69;100.00;52705.81;5073875;28;20466;-77
2023/01/20 00:48:37;;;;;;;9.37;4.53;;;;;;;-145.69;100.00;52678.09;5074083;28;20199;-77
2023/01/20 00:51:05;;;;;;;12.07;5.00;;;;;;;-145.69;100.00;52680.06;5074328;28;20202;-78
2023/01/20 00:53:32;;;;;;;12.17;5.10;;;;;;;-145.69;100.00;52684.03;5074006;28;20612;-78
2023/01/20 00:56:00;;;;;;;11.27;4.87;;;;;;;-145.69;100.00;52682.03;5074478;28;20241;-77
2023/01/20 00:58:27;;;;;;;14.37;5.47;;;;;;;-145.69;100.00;52695.91;5074031;28;20214;-77
2023/01/20 01:00:55;;;;;;;9.83;4.27;;;;;;;-145.69;100.00;52711.75;5074151;28;20203;-77
2023/01/20 01:03:22;;;;;;;7.07;4.00;;;;;;;-145.69;100.00;52662.22;5073822;28;20205;-77
2023/01/20 01:05:48;;;;;;;6.87;3.90;;;;;;;-145.69;100.00;52682.03;5074026;28;20317;-77
2023/01/20 01:08:15;;;;;;;7.97;4.07;;;;;;;-145.69;100.00;52715.72;5073941;28;20210;-78
2023/01/20 01:10:41;;;;;;;9.37;3.93;;;;;;;-145.69;100.00;52670.16;5073867;28;20641;-76
2023/01/20 01:13:09;;;;;;;13.57;4.07;;;;;;;-145.69;100.00;52709.78;5073767;28;20213;-77
2023/01/20 01:15:36;;;;;;;7.63;3.53;;;;;;;-145.69;100.00;52693.94;5073302;28;20210;-77
2023/01/20 01:18:03;;;;;;;9.00;4.30;;;;;;;-145.69;100.00;52662.22;5073524;28;20190;-77
2023/01/20 01:20:30;;;;;;;8.00;4.30;;;;;;;-145.69;100.00;52699.88;5073394;28;20195;-77
2023/01/20 01:22:56;;;;;;;8.53;4.27;;;;;;;-145.69;100.00;52668.19;5073633;28;20213;-77
2023/01/20 01:25:23;;;;;;;9.77;4.07;;;;;;;-145.69;100.00;52721.66;5072258;28;20199;-77
2023/01/20 01:27:49;;;;;;;8.43;3.60;;;;;;;-145.69;100.00;52686.00;5073189;28;20202;-77
2023/01/20 01:30:17;;;;;;;8.87;3.90;;;;;;;-145.69;100.00;52672.13;5073338;28;20673;-77
2023/01/20 01:32:44;;;;;;;7.03;3.27;;;;;;;-145.69;100.00;52686.00;5073549;28;20203;-77
2023/01/20 01:35:10;;;;;;;8.63;4.03;;;;;;;-145.69;100.00;52687.97;5073335;28;20202;-78
2023/01/20 01:37:37;;;;;;;8.67;3.97;;;;;;;-145.69;100.00;52697.88;5073166;28;20743;-78
2023/01/20 01:40:04;;;;;;;7.60;3.13;;;;;;;-145.69;100.00;52721.66;5072895;28;20199;-78
2023/01/20 01:42:30;;;;;;;10.30;4.33;;;;;;;-145.69;100.00;52727.59;5072802;28;20217;-77
2023/01/20 01:45:21;;;;;;;7.87;3.90;;;;;;;-145.69;100.00;52697.88;5072535;28;20228;-77
2023/01/20 01:47:50;;;;;;;8.37;3.83;;;;;;;-145.69;100.00;52678.09;5072673;28;20238;-78
2023/01/20 01:50:19;;;;;;;10.80;3.80;;;;;;;-145.69;100.00;52721.66;5053451;28;20225;-77
2023/01/20 01:52:50;;;;;;;8.60;3.47;;;;;;;-145.69;100.00;52707.78;5053064;28;20211;-77
2023/01/20 01:55:18;;;;;;;6.77;3.60;;;;;;;-145.69;100.00;52682.03;5052722;28;20677;-77
2023/01/20 01:57:45;;;;;;;5.87;3.03;;;;;;;-145.69;100.00;52717.69;5053161;28;20200;-77
2023/01/20 02:00:13;;;;;;;5.70;3.00;;;;;;;-145.69;100.00;52674.13;5053067;28;20206;-77
2023/01/20 02:02:42;;;;;;;9.57;3.40;;;;;;;-145.69;100.00;52705.81;5053058;28;20210;-77
2023/01/20 02:05:09;;;;;;;5.67;3.30;;;;;;;-145.69;100.00;52717.69;5052830;28;20269;-77
2023/01/20 02:07:36;;;;;;;6.27;2.83;;;;;;;-145.69;100.00;52686.00;5052975;28;20235;-77
2023/01/20 02:10:03;;;;;;;5.50;2.70;;;;;;;-145.69;100.00;52676.09;5053207;28;20202;-77
2023/01/20 02:12:30;;;;;;;5.73;2.73;;;;;;;-145.69;100.00;52719.66;5073211;28;20199;-77
2023/01/20 02:14:59;;;;;;;6.00;3.17;;;;;;;-145.69;100.00;52721.66;5072847;28;20539;-77
2023/01/20 02:17:30;;;;;;;8.37;2.83;;;;;;;-145.69;100.00;52697.88;5072871;28;20240;-77
2023/01/20 02:20:23;;;;;;;6.53;3.37;;;;;;;-145.69;100.00;52713.72;5071239;28;20442;-77
2023/01/20 02:22:55;;;;;;;7.87;2.70;;;;;;;-145.69;100.00;52717.69;5072652;28;20936;-77
2023/01/20 02:25:43;;;;;;;5.47;2.60;;;;;;;-145.69;100.00;52656.28;5072908;28;20202;-77
2023/01/20 02:28:35;;;;;;;5.63;2.70;;;;;;;-145.69;100.00;52672.13;5055920;28;20210;-77
2023/01/20 02:31:25;;;;;;;6.03;2.97;;;;;;;-145.69;100.00;52689.97;5052539;28;20196;-77
2023/01/20 02:34:00;;;;;;;5.07;2.80;;;;;;;-145.69;100.00;52721.66;5052765;28;20199;-77
2023/01/20 02:36:32;;;;;;;5.87;3.10;;;;;;;-145.69;100.00;52725.63;5052769;28;20221;-78
2023/01/20 02:39:03;;;;;;;6.47;3.00;;;;;;;-145.69;100.00;52725.63;5052864;28;20211;-77
2023/01/20 02:41:37;;;;;;;6.67;2.93;;;;;;;-145.69;100.00;52713.72;5066311;28;20229;-77
2023/01/20 02:44:12;;;;;;;4.33;2.63;;;;;;;-145.69;100.00;52729.56;5072458;28;20720;-78
2023/01/20 02:46:47;;;;;;;7.73;3.40;;;;;;;-145.69;100.00;52719.66;5072851;28;20222;-77
2023/01/20 02:49:19;;;;;;;5.27;3.10;;;;;;;-145.69;100.00;52709.78;5076029;28;20198;-77
2023/01/20 02:51:52;;;;;;;5.63;3.27;;;;;;;-145.69;100.00;52674.13;5056801;28;20199;-76
2023/01/20 02:54:21;;;;;;;5.57;2.97;;;;;;;-145.69;100.00;52725.63;5060378;28;20244;-76
2023/01/20 02:56:49;;;;;;;7.37;3.47;;;;;;;-145.69;100.00;52701.84;5076655;28;20248;-77
2023/01/20 02:59:20;;;;;;;11.60;3.30;;;;;;;-145.69;100.00;52727.59;5076170;28;20745;-76
2023/01/20 03:01:53;;;;;;;4.63;2.67;;;;;;;-145.69;100.00;52717.69;5076172;28;20225;-76
2023/01/20 03:04:25;;;;;;;7.37;3.00;;;;;;;-145.69;100.00;52725.63;5076704;28;20198;-76
2023/01/20 03:06:55;;;;;;;7.23;2.93;;;;;;;-145.69;100.00;52707.78;5076205;28;20226;-76
2023/01/20 03:09:28;;;;;;;7.67;3.23;;;;;;;-145.69;100.00;52715.72;5076327;28;20198;-77
2023/01/20 03:11:58;;;;;;;6.00;3.00;;;;;;;-145.69;100.00;52723.63;5075905;28;20213;-77
2023/01/20 03:14:25;;;;;;;4.23;2.63;;;;;;;-145.69;100.00;52693.94;5076419;28;20562;-76
2023/01/20 03:16:52;;;;;;;7.70;3.07;;;;;;;-145.69;100.00;52717.69;5076099;28;20674;-76
2023/01/20 03:19:19;;;;;;;5.77;3.10;;;;;;;-145.69;100.00;52745.41;5075971;28;20204;-77
2023/01/20 03:21:48;;;;;;;8.23;3.27;;;;;;;-145.69;100.00;52717.69;5074977;28;20645;-76
2023/01/20 03:24:14;;;;;;;8.13;3.07;;;;;;;-145.69;100.00;52705.81;5075775;28;20203;-77
2023/01/20 03:26:41;;;;;;;6.23;2.77;;;;;;;-145.69;100.00;52733.53;5075721;28;20222;-77
2023/01/20 03:29:11;;;;;;;5.93;3.00;;;;;;;-145.69;100.00;52709.78;5075630;28;20224;-76
2023/01/20 03:31:41;;;;;;;7.30;2.93;;;;;;;-145.69;100.00;52737.50;5075830;28;20206;-76
2023/01/20 03:34:09;;;;;;;5.97;3.17;;;;;;;-145.69;100.00;52735.50;5075728;28;20202;-76
2023/01/20 03:36:37;;;;;;;7.40;3.27;;;;;;;-145.69;100.00;52725.63;5075535;28;20213;-77
2023/01/20 03:39:05;;;;;;;7.43;3.30;;;;;;;-145.69;100.00;52723.63;5075477;28;20194;-76
2023/01/20 03:41:40;;;;;;;7.93;3.30;;;;;;;-145.69;100.00;52691.94;5075550;28;20197;-77
2023/01/20 03:44:12;;;;;;;11.73;2.93;;;;;;;-145.69;100.00;52705.81;5075317;28;20237;-78
2023/01/20 03:46:42;;;;;;;5.23;3.10;;;;;;;-145.69;100.00;52727.59;5075335;28;20227;-77
2023/01/20 03:49:17;;;;;;;7.13;2.90;;;;;;;-145.69;100.00;52701.84;5075384;28;20206;-77
2023/01/20 03:51:54;;;;;;;11.53;3.50;;;;;;;-145.69;100.00;52741.47;5075432;28;20209;-77
2023/01/20 03:54:27;;;;;;;5.27;2.90;;;;;;;-145.69;100.00;52701.84;5075218;28;20190;-77
2023/01/20 03:57:02;;;;;;;5.53;3.13;;;;;;;-145.69;100.00;52729.56;5075636;28;20277;-77
2023/01/20 03:59:32;;;;;;;7.20;3.50;;;;;;;-145.69;100.00;52733.53;5075175;28;20264;-76
2023/01/20 04:02:04;;;;;;;6.37;2.87;;;;;;;-145.69;100.00;52761.25;5075113;28;20206;-76
2023/01/20 04:04:34;;;;;;;4.83;3.07;;;;;;;-145.69;100.00;52733.53;5075381;28;20203;-77
2023/01/20 04:07:01;;;;;;;6.63;3.10;;;;;;;-145.69;100.00;52749.38;5075264;28;20227;-77
2023/01/20 04:09:32;;;;;;;6.97;3.43;;;;;;;-145.69;100.00;52727.59;5075300;28;20207;-77
2023/01/20 04:11:59;;;;;;;5.87;3.37;;;;;;;-145.69;100.00;52721.66;5054856;28;20202;-77
2023/01/20 04:14:25;;;;;;;7.30;3.57;;;;;;;-145.69;100.00;52731.56;5054927;28;20211;-77
2023/01/20 04:16:55;;;;;;;10.20;3.70;;;;;;;-145.69;100.00;52719.66;5055050;28;20204;-76
2023/01/20 04:19:22;;;;;;;7.23;3.30;;;;;;;-145.69;100.00;52697.88;5054700;28;20211;-78
2023/01/20 04:21:53;;;;;;;7.40;3.80;;;;;;;-145.69;100.00;52705.81;5074725;28;20207;-76
2023/01/20 04:24:25;;;;;;;6.60;3.40;;;;;;;-145.69;100.00;52697.88;5074981;28;20203;-76
2023/01/20 04:26:53;;;;;;;6.97;3.47;;;;;;;-145.69;100.00;52739.47;5074906;28;20226;-76
2023/01/20 04:29:19;;;;;;;5.03;2.77;;;;;;;-145.69;100.00;52705.81;5073971;28;20570;-77
2023/01/20 04:31:46;;;;;;;5.23;2.83;;;;;;;-145.69;100.00;52755.31;5074862;28;20199;-76
2023/01/20 04:34:14;;;;;;;8.83;3.63;;;;;;;-145.69;100.00;52701.84;5074698;28;20650;-77
2023/01/20 04:36:41;;;;;;;5.23;3.13;;;;;;;-145.69;100.00;52761.25;5071162;28;20199;-76
2023/01/20 04:39:07;;;;;;;13.07;3.50;;;;;;;-145.69;100.00;52725.63;5074357;28;20542;-76
2023/01/20 04:41:34;;;;;;;10.47;3.67;;;;;;;-145.69;100.00;52709.78;5074241;28;20761;-77
2023/01/20 04:44:02;;;;;;;6.33;3.50;;;;;;;-145.69;100.00;52711.75;5074067;28;20238;-76
2023/01/20 04:46:28;;;;;;;7.63;3.60;;;;;;;-145.69;100.00;52707.78;5073978;28;20550;-77
2023/01/20 04:48:54;;;;;;;6.57;3.57;;;;;;;-145.69;100.00;52723.63;5074505;28;20661;-77
2023/01/20 04:51:21;;;;;;;8.20;3.50;;;;;;;-145.69;100.00;52719.66;5073342;28;20202;-76
2023/01/20 04:53:47;;;;;;;6.23;3.50;;;;;;;-145.69;100.00;52711.75;5074424;28;20228;-76
2023/01/20 04:56:17;;;;;;;9.20;3.83;;;;;;;-145.69;100.00;52725.63;5074132;28;20351;-77
2023/01/20 04:58:44;;;;;;;9.43;3.27;;;;;;;-145.69;100.00;52749.38;5074549;28;20207;-76
2023/01/20 05:01:12;;;;;;;7.20;3.47;;;;;;;-145.69;100.00;52733.53;5074243;28;20199;-77
2023/01/20 05:03:38;;;;;;;12.27;4.27;;;;;;;-145.69;100.00;52701.84;5074229;28;20199;-77
2023/01/20 05:06:05;;;;;;;9.50;3.97;;;;;;;-145.69;100.00;52721.66;5074075;28;20199;-76
2023/01/20 05:08:32;;;;;;;6.97;3.70;;;;;;;-145.69;100.00;52743.44;5073760;28;20285;-76
2023/01/20 05:10:59;;;;;;;6.87;3.63;;;;;;;-145.69;100.00;52701.84;5073200;28;20206;-76
2023/01/20 05:13:25;;;;;;;14.00;4.10;;;;;;;-145.69;100.00;52757.31;5073787;28;20645;-77
2023/01/20 05:15:51;;;;;;;7.73;4.00;;;;;;;-145.69;100.00;52709.78;5073969;28;20198;-76
2023/01/20 05:18:19;;;;;;;12.90;4.30;;;;;;;-145.69;100.00;52749.38;5073640;28;20210;-77
2023/01/20 05:20:46;;;;;;;6.77;4.20;;;;;;;-145.69;100.00;52721.66;5073312;28;20195;-75
2023/01/20 05:23:13;;;;;;;6.83;3.70;;;;;;;-145.69;100.00;52739.47;5073128;28;20205;-77
2023/01/20 05:25:39;;;;;;;9.17;3.90;;;;;;;-145.69;100.00;52701.84;5073445;28;20649;-77
2023/01/20 05:28:06;;;;;;;9.00;3.87;;;;;;;-145.69;100.00;52705.81;5073342;28;20226;-77
2023/01/20 05:30:35;;;;;;;7.17;3.57;;;;;;;-145.69;100.00;52725.63;5073687;28;20281;-76
2023/01/20 05:33:02;;;;;;;8.17;3.83;;;;;;;-145.69;100.00;52672.13;5073129;28;20199;-76
2023/01/20 05:35:32;;;;;;;9.80;3.90;;;;;;;-145.69;100.00;52707.78;5073494;28;20195;-77
2023/01/20 05:37:58;;;;;;;13.07;5.23;;;;;;;-145.69;100.00;52705.81;5073688;28;20205;-76
2023/01/20 05:40:26;;;;;;;11.23;5.07;;;;;;;-145.69;100.00;52699.88;5073329;28;20682;-77
2023/01/20 05:42:58;;;;;;;7.83;4.40;;;;;;;-145.69;100.00;52695.91;5073271;28;20728;-76
2023/01/20 05:45:25;;;;;;;7.80;4.03;;;;;;;-145.69;100.00;52711.75;5073474;28;20671;-76
2023/01/20 05:47:54;;;;;;;9.37;4.43;;;;;;;-145.69;100.00;52709.78;5072674;28;20711;-76
2023/01/20 05:50:24;;;;;;;11.53;4.93;;;;;;;-145.69;100.00;52709.78;5072904;28;20199;-76
2023/01/20 05:52:54;;;;;;;11.83;4.70;;;;;;;-145.69;100.00;52705.81;5073248;28;20199;-77
2023/01/20 05:55:21;;;;;;;10.00;5.03;;;;;;;-145.69;100.00;52705.81;5073090;28;20202;-77
2023/01/20 05:57:49;;;;;;;11.67;5.63;;;;;;;-145.69;100.00;52741.47;5073147;28;20666;-77
2023/01/20 06:00:18;;;;;;;10.20;4.67;;;;;;;-145.69;100.00;52735.50;5073076;28;20198;-76
2023/01/20 06:02:45;;;;;;;8.13;4.03;;;;;;;-145.69;100.00;52721.66;5072499;28;20194;-76
2023/01/20 06:05:12;;;;;;;9.43;4.20;;;;;;;-145.69;100.00;52733.53;5073146;28;20198;-76
2023/01/20 06:07:38;;;;;;;13.30;5.53;;;;;;;-145.69;100.00;52670.16;5072624;28;20236;-76
2023/01/20 06:10:07;;;;;;;11.77;5.70;;;;;;;-145.69;100.00;52727.59;5072989;28;20202;-77
2023/01/20 06:12:51;;;;;;;11.18;5.50;;;;;;;-145.69;100.00;52725.63;5072746;28;20869;-76
2023/01/20 06:15:17;;;;;;;11.90;5.53;;;;;;;-145.69;100.00;52715.72;5073112;28;20202;-76
2023/01/20 06:17:44;;;;;;;12.27;5.27;;;;;;;-145.69;100.00;52713.72;5072145;28;20206;-76
2023/01/20 06:20:11;;;;;;;11.43;5.00;;;;;;;-145.69;100.00;52721.66;5072749;28;20217;-76
2023/01/20 06:22:38;;;;;;;8.13;4.20;;;;;;;-145.69;100.00;52737.50;5072957;28;20199;-76
2023/01/20 06:25:10;;;;;;;19.90;6.80;;;;;;;-145.69;100.00;52670.16;5072598;28;20566;-77
2023/01/20 06:27:37;;;;;;;13.57;5.60;;;;;;;-145.69;100.00;52705.81;5072763;28;20233;-76
2023/01/20 06:30:06;;;;;;;9.77;5.20;;;;;;;-145.69;100.00;52664.22;5072718;28;20654;-77
2023/01/20 06:32:35;;;;;;;10.67;5.40;;;;;;;-145.69;100.00;52725.63;5072466;28;20206;-76
2023/01/20 06:35:02;;;;;;;9.37;4.87;;;;;;;-145.69;100.00;52709.78;5072793;28;20203;-76
2023/01/20 06:37:28;;;;;;;15.20;5.50;;;;;;;-145.69;100.00;52751.34;5072409;28;20214;-76
2023/01/20 06:39:55;;;;;;;12.13;6.10;;;;;;;-145.69;100.00;52729.56;5072726;28;20294;-76
2023/01/20 06:42:23;;;;;;;17.03;6.73;;;;;;;-145.69;100.00;52709.78;5068060;28;20210;-76
2023/01/20 06:44:49;;;;;;;12.80;6.37;;;;;;;-145.69;100.00;52713.72;5071971;28;20226;-76
2023/01/20 06:47:16;;;;;;;14.23;6.67;;;;;;;-145.69;100.00;52755.31;5072524;28;20710;-76
2023/01/20 06:49:44;;;;;;;17.33;7.23;;;;;;;-145.69;100.00;52707.78;5072405;28;20195;-76
2023/01/20 06:52:10;;;;;;;13.20;5.70;;;;;;;-145.69;100.00;52749.38;5072356;28;20199;-76
2023/01/20 06:54:40;;;;;;;10.37;5.33;;;;;;;-145.69;100.00;52691.94;5072074;28;20206;-76
2023/01/20 06:57:06;;;;;;;14.40;6.23;;;;;;;-145.69;100.00;52682.03;5072508;28;20650;-76
2023/01/20 06:59:34;;;;;;;12.73;6.10;;;;;;;-145.69;100.00;52729.56;5072531;28;20199;-76
2023/01/20 07:02:00;;;;;;;17.00;7.00;;;;;;;-145.69;100.00;52709.78;5072143;28;20684;-76
2023/01/20 07:04:27;;;;;;;14.67;6.90;;;;;;;-145.69;100.00;52743.44;5072172;28;20561;-76
2023/01/20 07:06:53;;;;;;;19.13;6.60;;;;;;;-145.69;100.00;52721.66;5072014;28;20543;-76
2023/01/20 07:09:20;;;;;;;21.70;6.73;;;;;;;-145.69;100.00;52745.41;5072317;28;20203;-76
2023/01/20 07:11:48;;;;;;;16.83;6.00;;;;;;;-145.69;100.00;52737.50;5071746;28;20692;-77
2023/01/20 07:14:20;;;;;;;14.10;5.70;;;;;;;-145.69;100.00;52737.50;5072379;28;20539;-76
2023/01/20 07:16:50;;;;;;;12.20;6.10;;;;;;;-145.69;100.00;52674.13;5071676;28;20542;-76
2023/01/20 07:19:17;;;;;;;12.47;6.67;;;;;;;-145.69;100.00;52729.56;5072002;28;20248;-76
2023/01/20 07:21:43;;;;;;;17.20;6.70;;;;;;;-145.69;100.00;52666.19;5071977;28;20206;-75
2023/01/20 07:24:15;;;;;;;16.17;7.07;;;;;;;-145.69;100.00;52713.72;5072204;28;20225;-76
2023/01/20 07:26:41;;;;;;;13.60;6.57;;;;;;;-145.69;100.00;52729.56;5072466;28;20693;-76
2023/01/20 07:29:08;;;;;;;16.00;6.60;;;;;;;-145.69;100.00;52705.81;5072046;28;20232;-76
2023/01/20 07:31:34;;;;;;;16.97;8.00;;;;;;;-145.69;100.00;52741.47;5072025;28;20187;-76
2023/01/20 07:34:02;;;;;;;16.87;6.87;;;;;;;-145.69;100.00;52721.66;5074434;28;20687;-76
2023/01/20 07:36:29;;;;;;;15.63;6.67;;;;;;;-145.69;100.00;52691.94;5075344;28;20225;-77
2023/01/20 07:38:55;;;;;;;18.13;7.37;;;;;;;-145.69;100.00;52729.56;5075934;28;20297;-77
2023/01/20 07:41:26;;;;;;;18.57;7.17;;;;;;;-145.69;100.00;52713.72;5076033;28;20203;-76
2023/01/20 07:43:54;;;;;;;17.70;7.17;;;;;;;-145.69;100.00;52705.81;5075506;28;20570;-77
2023/01/20 07:46:23;;;;;;;16.77;7.53;;;;;;;-145.69;100.00;52701.84;5075065;28;20194;-76
2023/01/20 07:48:50;;;;;;;15.97;6.40;;;;;;;-145.69;100.00;52691.94;5075210;28;20226;-76
2023/01/20 07:51:18;;;;;;;15.33;6.77;;;;;;;-145.69;100.00;52697.88;5074841;28;20205;-76
2023/01/20 07:53:47;;;;;;;14.40;7.13;;;;;;;-145.69;100.00;52709.78;5075601;28;20199;-75
2023/01/20 07:56:15;;;;;;;14.83;7.17;;;;;;;-145.69;100.00;52709.78;5075100;28;20543;-76
2023/01/20 07:58:44;;;;;;;15.87;7.70;;;;;;;-145.69;100.00;52709.78;5075036;28;20222;-77
2023/01/20 08:01:12;;;;;;;14.07;7.80;;;;;;;-145.69;100.00;52686.00;5074943;28;20194;-77
2023/01/20 08:03:39;;;;;;;16.27;7.77;;;;;;;-145.69;100.00;52693.94;5074965;28;20203;-76
2023/01/20 08:06:07;;;;;;;16.50;7.17;;;;;;;-145.69;100.00;52705.81;5075211;28;20195;-76
2023/01/20 08:08:36;;;;;;;13.13;7.37;;;;;;;-145.69;100.00;52703.81;5075165;28;20257;-76
2023/01/20 08:11:03;;;;;;;18.60;7.50;;;;;;;-145.69;100.00;52729.56;5074936;28;20195;-76
2023/01/20 08:13:30;;;;;;;34.33;12.20;;;;;;;-145.69;100.00;52676.09;5075576;28;20206;-75
2023/01/20 08:16:00;;;;;;;22.13;8.57;;;;;;;-145.69;100.00;52723.63;5075266;28;20194;-75
2023/01/20 08:18:26;;;;;;;34.47;13.67;;;;;;;-145.69;100.00;52705.81;5074485;28;20199;-75
2023/01/20 08:20:53;;;;;;;16.30;8.20;;;;;;;-145.69;100.00;52689.97;5075163;28;20201;-75
2023/01/20 08:23:19;;;;;;;18.13;8.10;;;;;;;-145.69;100.00;52697.88;5074529;28;20199;-76
2023/01/20 08:25:47;;;;;;;21.33;8.70;;;;;;;-145.69;100.00;52715.72;5074878;28;20202;-76
2023/01/20 08:28:16;;;;;;;19.63;8.77;;;;;;;-145.69;100.00;52693.94;5074776;28;20309;-76
2023/01/20 08:30:44;;;;;;;20.57;9.13;;;;;;;-145.69;100.00;52703.81;5074276;28;20194;-76
2023/01/20 08:33:11;;;;;;;25.50;10.90;;;;;;;-145.69;100.00;52709.78;5074530;28;20207;-76
2023/01/20 08:35:37;;;;;;;40.10;13.70;;;;;;;-145.69;100.00;52691.94;5074695;28;20198;-76
2023/01/20 08:38:05;;;;;;;14.97;6.37;;;;;;;-145.69;100.00;52699.88;5074527;28;20230;-76
2023/01/20 08:40:32;;;;;;;10.67;6.07;;;;;;;-145.69;100.00;52701.84;5074653;28;20199;-77
2023/01/20 08:43:00;;;;;;;12.47;6.20;;;;;;;-145.69;100.00;52674.13;5074579;28;20289;-76
2023/01/20 08:45:26;;;;;;;13.50;6.17;;;;;;;-145.69;100.00;52707.78;5073395;28;20202;-76
2023/01/20 08:47:53;;;;;;;13.67;6.60;;;;;;;-145.69;100.00;52731.56;5071561;28;20580;-76
2023/01/20 08:50:21;;;;;;;16.50;7.67;;;;;;;-145.69;100.00;52739.47;5074023;28;20209;-76
2023/01/20 08:52:47;;;;;;;18.47;8.17;;;;;;;-145.69;100.00;52646.41;5074157;28;20675;-76
2023/01/20 08:55:14;;;;;;;20.03;9.67;;;;;;;-145.69;100.00;52687.97;5074336;28;20210;-76
2023/01/20 08:57:40;;;;;;;18.70;8.53;;;;;;;-145.69;100.00;52697.88;5072036;28;20195;-76
2023/01/20 09:00:10;;;;;;;18.03;8.73;;;;;;;-145.69;100.00;52682.03;5073973;28;20198;-76
2023/01/20 09:02:37;;;;;;;17.40;8.23;;;;;;;-145.69;100.00;52721.66;5073675;28;20256;-77
2023/01/20 09:05:05;;;;;;;15.90;7.67;;;;;;;-145.69;100.00;52693.94;5073549;28;20199;-76
2023/01/20 09:07:31;;;;;;;14.13;7.27;;;;;;;-145.69;100.00;52646.41;5073887;28;20222;-75
2023/01/20 09:09:58;;;;;;;13.93;7.43;;;;;;;-145.69;100.00;52719.66;5073755;28;20207;-76
2023/01/20 09:12:24;;;;;;;16.10;7.43;;;;;;;-145.69;100.00;52686.00;5073643;28;20194;-76
2023/01/20 09:14:51;;;;;;;16.77;8.67;;;;;;;-145.69;100.00;52676.09;5073727;28;20194;-78
2023/01/20 09:17:19;;;;;;;18.77;8.70;;;;;;;-145.69;100.00;52721.66;5073457;28;20661;-76
2023/01/20 09:19:45;;;;;;;17.03;7.50;;;;;;;-145.69;100.00;52670.16;5073627;28;20292;-77
2023/01/20 09:22:15;;;;;;;14.70;7.47;;;;;;;-145.69;100.00;52682.03;5073673;28;20198;-76
2023/01/20 09:24:41;;;;;;;24.33;9.67;;;;;;;-145.69;100.00;52666.19;5073436;28;20672;-76
2023/01/20 09:27:08;;;;;;;25.73;11.13;;;;;;;-145.69;100.00;52697.88;5073414;28;20203;-77
2023/01/20 09:29:35;;;;;;;25.93;10.73;;;;;;;-145.69;100.00;52660.25;5073085;28;20230;-77
2023/01/20 09:32:02;;;;;;;23.80;11.47;;;;;;;-145.69;100.00;52689.97;5072438;28;20194;-75
2023/01/20 09:34:31;;;;;;;22.53;10.73;;;;;;;-145.69;100.00;52703.81;5070270;28;20194;-76
2023/01/20 09:43:52;;;;;;;23.83;11.73;;;;;;;-145.69;100.00;52725.63;5072476;28;20197;-75
2023/01/20 09:45:27;;;;;;;34.70;15.43;;;;;;;-145.69;100.00;52711.75;5073018;28;20230;-75
2023/01/20 09:48:03;;;;;;;34.23;14.57;;;;;;;-145.69;100.00;52668.19;5073040;28;20209;-75
2023/01/20 09:53:36;;;;;;;32.63;12.93;;;;;;;-145.69;100.00;52678.09;5072820;28;20205;-75
2023/01/20 09:56:08;;;;;;;42.03;12.93;;;;;;;-145.69;100.00;52662.22;5072494;28;20289;-75
2023/01/20 09:58:41;;;;;;;21.87;7.77;;;;;;;-145.69;100.00;52674.13;5073095;28;20202;-75
2023/01/20 10:01:13;;;;;;;17.27;6.67;;;;;;;-145.69;100.00;52682.03;5072337;28;20195;-76
2023/01/20 10:03:47;;;;;;;15.63;7.10;;;;;;;-145.69;100.00;52666.19;5072357;28;20191;-75
2023/01/20 10:06:23;;;;;;;20.63;13.10;;;;;;;-145.69;100.00;52670.16;5072749;28;20713;-76
2023/01/20 10:08:54;;;;;;;12.30;7.17;;;;;;;-145.69;100.00;52697.88;5072779;28;20233;-76
2023/01/20 10:11:22;;;;;;;13.30;7.00;;;;;;;-145.69;100.00;52660.25;5072866;28;20203;-76
2023/01/20 10:13:55;;;;;;;12.13;6.57;;;;;;;-145.69;100.00;52695.91;5072707;28;20557;-76
2023/01/20 10:16:29;;;;;;;12.63;7.07;;;;;;;-145.69;100.00;52636.50;5072682;28;20725;-76
2023/01/20 10:18:59;;;;;;;11.60;5.90;;;;;;;-145.69;100.00;52695.91;5072494;28;20195;-76
2023/01/20 10:21:34;;;;;;;13.20;7.13;;;;;;;-145.69;100.00;52670.16;5072505;28;20206;-76
2023/01/20 10:24:04;;;;;;;15.17;7.53;;;;;;;-145.69;100.00;52668.19;5072587;28;20665;-76
2023/01/20 10:26:37;;;;;;;11.67;6.57;;;;;;;-145.69;100.00;52693.94;5072078;28;20281;-76
2023/01/20 10:29:08;;;;;;;11.00;6.17;;;;;;;-145.69;97.83;52654.31;5052611;28;20270;-76
2023/01/20 10:31:42;;;;;;;12.33;5.60;;;;;;;-145.69;96.73;52644.41;5069348;28;20197;-77
2023/01/20 10:34:12;;;;;;;12.47;5.83;;;;;;;-145.69;98.10;52648.38;5072555;28;20202;-75
2023/01/20 10:36:44;;;;;;;14.73;6.60;;;;;;;-145.69;100.00;52686.00;5072589;28;20225;-76
2023/01/20 10:39:26;;;;;;;12.73;6.27;;;;;;;-145.69;99.68;52664.22;5072610;28;20202;-75
2023/01/20 10:41:59;;;;;;;16.27;6.77;;;;;;;-145.69;98.72;52634.50;5069836;28;20202;-76
2023/01/20 10:44:26;;;;;;;12.63;7.07;;;;;;;-145.69;97.91;52644.41;5072545;28;20621;-77
2023/01/20 10:47:06;;;;;;;8.80;5.27;;;;;;;-145.69;97.31;52650.34;5072535;28;20216;-76
2023/01/20 10:49:57;;;;;;;9.00;4.93;;;;;;;-145.69;94.16;52642.44;5072319;28;20229;-76
2023/01/20 10:52:40;;;;;;;7.43;4.60;;;;;;;-145.69;97.91;52646.41;5072425;28;20198;-77
2023/01/20 10:55:21;;;;;;;10.53;5.30;;;;;;;-145.69;98.16;52650.34;5072585;28;20210;-77
2023/01/20 10:57:51;;;;;;;8.80;5.00;;;;;;;-145.69;97.57;52656.28;5072030;28;20687;-76
2023/01/20 11:00:23;;;;;;;12.57;5.10;;;;;;;-145.69;100.00;52662.22;5072086;28;20191;-76
2023/01/20 11:02:51;;;;;;;9.37;4.67;;;;;;;-145.69;100.00;52652.34;5072032;28;20550;-77
2023/01/20 11:05:20;;;;;;;10.83;4.80;;;;;;;-145.69;100.00;52674.13;5072200;28;20206;-77
2023/01/20 11:07:52;;;;;;;9.97;5.70;;;;;;;-145.69;100.00;52666.19;5072897;28;20210;-76
2023/01/20 11:10:20;;;;;;;12.70;5.33;;;;;;;-145.69;100.00;52672.13;5075630;28;20222;-77
2023/01/20 11:12:51;;;;;;;9.27;4.90;;;;;;;-145.69;100.00;52697.88;5075616;28;20287;-77
2023/01/20 11:15:21;;;;;;;9.67;4.77;;;;;;;-145.69;100.00;52620.66;5075647;28;20206;-77
2023/01/20 11:18:29;;;;;;;8.50;4.50;;;;;;;-145.69;100.00;52686.00;5075712;28;20206;-79
2023/01/20 11:20:59;;;;;;;8.60;4.13;;;;;;;-145.69;100.00;52668.19;5070455;28;20658;-76
2023/01/20 11:23:36;;;;;;;11.97;4.77;;;;;;;-145.69;100.00;52695.91;5075183;28;20285;-76